createdAt,value
2022-11-05T06:05:14.461Z,86.40
2022-11-05T06:10:18.129Z,86.80
2022-11-05T06:15:21.688Z,86.90
2022-11-05T06:20:26.596Z,87.00
2022-11-05T06:25:30.115Z,87.20
2022-11-05T06:30:33.632Z,87.20
2022-11-05T06:35:38.513Z,87.40
2022-11-05T06:40:42.838Z,87.40
2022-11-05T06:45:46.358Z,87.40
2022-11-05T06:50:51.217Z,87.60
2022-11-05T06:55:54.887Z,87.90
2022-11-05T07:01:02.245Z,87.80
2022-11-05T07:06:08.311Z,88.30
2022-11-05T07:11:12.084Z,88.10
2022-11-05T07:16:15.590Z,88.00
2022-11-05T07:21:20.467Z,87.90
2022-11-05T07:26:23.969Z,87.90
2022-11-05T07:31:27.528Z,88.60
2022-11-05T07:36:32.478Z,89.10
2022-11-05T07:41:36.064Z,89.20
2022-11-05T07:46:39.594Z,88.90
2022-11-05T07:51:44.787Z,88.60
2022-11-05T07:56:48.693Z,88.70
2022-11-05T08:01:52.316Z,89.40
2022-11-05T08:06:57.364Z,88.80
2022-11-05T08:12:03.005Z,88.70
2022-11-05T08:17:07.032Z,88.60
2022-11-05T08:22:11.947Z,89.20
2022-11-05T08:27:15.452Z,88.70
2022-11-05T08:32:19.000Z,88.40
2022-11-05T08:37:23.922Z,88.50
2022-11-05T08:42:27.515Z,88.30
2022-11-05T08:47:31.147Z,88.30
2022-11-05T08:52:36.033Z,88.30
2022-11-05T08:57:39.556Z,88.20
2022-11-05T09:02:43.403Z,88.30
2022-11-05T09:07:48.314Z,88.20
2022-11-05T09:12:51.918Z,88.10
2022-11-05T09:17:55.832Z,88.00
2022-11-05T09:23:00.862Z,86.60
2022-11-05T09:28:12.272Z,85.80
2022-11-05T09:33:19.959Z,85.60
2022-11-05T09:38:24.860Z,83.90
2022-11-05T09:43:35.320Z,83.20
2022-11-05T09:48:40.238Z,83.10
2022-11-05T09:53:47.295Z,81.70
2022-11-05T09:58:55.588Z,81.00
2022-11-05T10:04:03.052Z,82.10
2022-11-05T10:09:14.066Z,83.10
2022-11-05T10:14:22.589Z,83.30
2022-11-05T10:19:29.411Z,83.30
2022-11-05T10:24:34.317Z,82.60
2022-11-05T10:29:38.126Z,82.00
2022-11-05T10:34:42.430Z,82.10
2022-11-05T10:39:47.367Z,81.00
2022-11-05T10:45:00.507Z,80.40
2022-11-05T10:50:06.197Z,80.70
2022-11-05T10:55:22.700Z,79.90
2022-11-05T11:00:29.400Z,79.20
2022-11-05T11:05:35.536Z,79.40
2022-11-05T11:10:51.156Z,78.90
2022-11-05T11:15:55.292Z,79.70
2022-11-05T11:21:08.620Z,80.10
2022-11-05T11:26:14.814Z,80.70
2022-11-05T11:31:24.153Z,80.60
2022-11-05T11:36:33.448Z,80.80
2022-11-05T11:41:41.949Z,81.30
2022-11-05T11:46:49.773Z,81.90
2022-11-05T11:52:00.661Z,82.50
2022-11-05T11:57:24.551Z,83.30
2022-11-05T12:03:01.885Z,84.50
2022-11-05T12:08:27.203Z,85.50
2022-11-05T12:14:00.060Z,86.00
2022-11-05T12:19:13.847Z,86.30
2022-11-05T12:24:56.533Z,86.40
2022-11-05T12:30:06.350Z,86.50
2022-11-05T12:35:24.696Z,86.50
2022-11-05T12:40:47.407Z,87.00
2022-11-05T12:45:59.813Z,86.90
2022-11-05T12:51:12.439Z,86.80
2022-11-05T12:56:22.332Z,87.00
2022-11-05T13:01:35.402Z,87.00
2022-11-05T13:06:40.820Z,87.10
2022-11-05T13:11:49.338Z,87.60
2022-11-05T13:16:58.070Z,88.60
2022-11-05T13:22:09.490Z,88.80
2022-11-05T13:27:42.308Z,89.10
2022-11-05T13:32:51.370Z,89.60
2022-11-05T13:38:17.947Z,89.60
2022-11-05T13:43:44.774Z,89.60
2022-11-05T13:49:21.780Z,90.00
2022-11-05T13:55:03.580Z,90.20
2022-11-05T14:00:12.561Z,90.50
2022-11-05T14:05:27.479Z,90.80
2022-11-05T14:10:37.613Z,91.10
2022-11-05T14:15:41.281Z,91.30
2022-11-05T14:20:58.266Z,91.50
2022-11-05T14:26:16.911Z,91.80
2022-11-05T14:32:02.536Z,92.20
2022-11-05T14:37:22.277Z,92.20
2022-11-05T14:42:29.682Z,92.20
2022-11-05T14:47:36.592Z,92.20
2022-11-05T14:52:50.955Z,92.20
2022-11-05T14:58:25.615Z,92.30
2022-11-05T15:04:01.129Z,92.50
2022-11-05T15:09:33.686Z,92.70
2022-11-05T15:14:43.351Z,92.70
2022-11-05T15:19:48.161Z,92.40
2022-11-05T15:24:52.048Z,92.30
2022-11-05T15:29:58.118Z,92.30
2022-11-05T15:35:01.671Z,92.20
2022-11-05T15:40:24.502Z,92.20
2022-11-05T15:45:29.416Z,92.50
2022-11-05T15:50:33.134Z,92.50
2022-11-05T15:55:36.883Z,92.60
2022-11-05T16:00:48.856Z,92.60
2022-11-05T16:05:53.451Z,92.90
2022-11-05T16:10:57.599Z,93.00
2022-11-05T16:16:04.764Z,93.20
2022-11-05T16:21:09.668Z,93.10
2022-11-05T16:27:01.214Z,93.20
2022-11-05T16:32:01.533Z,93.40
2022-11-05T16:37:06.526Z,93.40
2022-11-05T16:42:37.612Z,93.60
2022-11-05T16:47:43.486Z,93.80
2022-11-05T16:52:47.598Z,93.80
2022-11-05T16:57:54.079Z,93.90
2022-11-05T17:02:59.013Z,94.20
2022-11-05T17:08:03.526Z,94.20
2022-11-05T17:13:07.054Z,94.20
2022-11-05T17:18:17.942Z,94.30
2022-11-05T17:23:24.021Z,94.40
2022-11-05T17:28:29.044Z,94.50
2022-11-05T17:33:34.315Z,94.60
2022-11-05T17:38:38.154Z,94.70
2022-11-05T17:43:41.795Z,94.60
2022-11-05T17:48:47.274Z,94.60
2022-11-05T17:53:51.024Z,94.50
2022-11-05T17:58:55.498Z,94.50
2022-11-05T18:04:07.164Z,94.50
2022-11-05T18:09:12.764Z,94.60
2022-11-05T18:14:21.297Z,94.60
2022-11-05T18:19:29.295Z,94.70
2022-11-05T18:24:33.269Z,94.80
2022-11-05T18:29:37.019Z,94.80
2022-11-05T18:34:42.100Z,94.90
2022-11-05T18:39:46.550Z,94.80
2022-11-05T18:44:50.574Z,95.00
2022-11-05T18:49:55.461Z,94.70
2022-11-05T18:54:59.023Z,94.70
2022-11-05T19:00:02.862Z,94.90
2022-11-05T19:10:32.140Z,94.80
2022-11-05T19:15:35.632Z,94.70
2022-11-05T19:20:40.608Z,94.70
2022-11-05T19:25:44.168Z,94.60
2022-11-05T19:30:47.743Z,94.50
2022-11-05T19:35:52.598Z,94.50
2022-11-05T19:40:56.133Z,94.40
2022-11-05T19:45:59.648Z,94.30
2022-11-05T19:51:08.093Z,94.10
2022-11-05T19:56:14.098Z,94.00
2022-11-05T20:01:19.439Z,94.00
2022-11-05T20:06:28.573Z,94.00
2022-11-05T20:11:32.113Z,94.00
2022-11-05T20:16:39.017Z,94.00
2022-11-05T20:21:44.380Z,94.10
2022-11-05T20:26:48.031Z,94.10
2022-11-05T20:31:53.498Z,94.00
2022-11-05T20:36:58.420Z,93.90
2022-11-05T20:42:01.935Z,93.80
2022-11-05T20:47:05.885Z,93.90
2022-11-05T20:52:12.158Z,93.90
2022-11-05T20:57:15.692Z,93.90
2022-11-05T21:02:19.371Z,93.90
2022-11-05T21:07:24.330Z,94.00
2022-11-05T21:12:27.913Z,94.00
2022-11-05T21:17:31.415Z,94.10
2022-11-05T21:22:36.313Z,94.20
2022-11-05T21:27:43.420Z,94.30
2022-11-05T21:32:47.308Z,94.30
2022-11-05T21:37:52.245Z,94.40
2022-11-05T21:42:55.763Z,94.50
2022-11-05T21:47:59.500Z,94.40
2022-11-05T21:53:21.875Z,94.40
2022-11-05T21:58:43.098Z,94.40
2022-11-05T22:03:46.717Z,94.40
2022-11-05T22:08:51.595Z,94.70
2022-11-05T22:13:55.170Z,94.80
2022-11-05T22:18:58.930Z,94.90
2022-11-05T22:24:04.149Z,94.90
2022-11-05T22:29:07.933Z,94.80
2022-11-05T22:34:11.878Z,94.80
2022-11-05T22:39:17.275Z,95.00
2022-11-05T22:44:20.944Z,95.10
2022-11-05T22:49:24.743Z,95.10
2022-11-05T22:54:31.734Z,95.00
2022-11-05T22:59:37.486Z,95.40
2022-11-05T23:04:41.214Z,95.30
2022-11-05T23:10:03.926Z,95.40
2022-11-05T23:15:11.456Z,95.20
2022-11-05T23:20:35.352Z,95.20
2022-11-05T23:25:40.247Z,95.20
